sensor_id;sensor_type;location;lat;lon;timestamp;temperature;humidity
15013;DHT22;7603;49.432;11.418;2022-10-15T00:01:16;13.70;99.90
15013;DHT22;7603;49.432;11.418;2022-10-15T00:03:43;13.70;99.90
15013;DHT22;7603;49.432;11.418;2022-10-15T00:06:15;13.80;99.90
15013;DHT22;7603;49.432;11.418;2022-10-15T00:08:42;13.80;99.90
15013;DHT22;7603;49.432;11.418;2022-10-15T00:11:17;13.80;99.90
15013;DHT22;7603;49.432;11.418;2022-10-15T00:13:43;13.80;99.90
15013;DHT22;7603;49.432;11.418;2022-10-15T00:16:12;13.80;99.90
15013;DHT22;7603;49.432;11.418;2022-10-15T00:18:39;13.80;99.90
15013;DHT22;7603;49.432;11.418;2022-10-15T00:21:07;13.80;99.90
15013;DHT22;7603;49.432;11.418;2022-10-15T00:23:33;13.80;99.90
15013;DHT22;7603;49.432;11.418;2022-10-15T00:26:11;13.80;99.90
15013;DHT22;7603;49.432;11.418;2022-10-15T00:28:37;13.80;99.90
15013;DHT22;7603;49.432;11.418;2022-10-15T00:31:09;13.80;99.90
15013;DHT22;7603;49.432;11.418;2022-10-15T00:33:35;13.90;99.90
15013;DHT22;7603;49.432;11.418;2022-10-15T00:36:04;13.90;99.90
15013;DHT22;7603;49.432;11.418;2022-10-15T00:38:30;13.90;99.90
15013;DHT22;7603;49.432;11.418;2022-10-15T00:40:56;13.80;99.90
15013;DHT22;7603;49.432;11.418;2022-10-15T00:43:43;13.90;99.90
15013;DHT22;7603;49.432;11.418;2022-10-15T00:46:37;13.90;99.90
15013;DHT22;7603;49.432;11.418;2022-10-15T00:51:40;13.90;99.90
15013;DHT22;7603;49.432;11.418;2022-10-15T00:54:08;13.90;99.90
15013;DHT22;7603;49.432;11.418;2022-10-15T00:56:35;13.90;99.90
15013;DHT22;7603;49.432;11.418;2022-10-15T00:59:03;13.90;99.90
15013;DHT22;7603;49.432;11.418;2022-10-15T01:01:30;13.90;99.90
15013;DHT22;7603;49.432;11.418;2022-10-15T01:03:55;13.90;99.90
15013;DHT22;7603;49.432;11.418;2022-10-15T01:06:23;13.90;99.90
15013;DHT22;7603;49.432;11.418;2022-10-15T01:08:49;13.90;99.90
15013;DHT22;7603;49.432;11.418;2022-10-15T01:14:12;14.00;99.90
15013;DHT22;7603;49.432;11.418;2022-10-15T01:19:30;13.90;99.90
15013;DHT22;7603;49.432;11.418;2022-10-15T01:22:13;13.90;99.90
15013;DHT22;7603;49.432;11.418;2022-10-15T01:27:26;13.90;99.90
15013;DHT22;7603;49.432;11.418;2022-10-15T01:30:04;13.90;99.90
15013;DHT22;7603;49.432;11.418;2022-10-15T01:41:09;13.80;99.90
15013;DHT22;7603;49.432;11.418;2022-10-15T01:43:59;13.80;99.90
15013;DHT22;7603;49.432;11.418;2022-10-15T01:49:02;13.80;99.90
15013;DHT22;7603;49.432;11.418;2022-10-15T01:51:31;13.80;99.90
15013;DHT22;7603;49.432;11.418;2022-10-15T01:53:59;13.80;99.90
15013;DHT22;7603;49.432;11.418;2022-10-15T01:56:26;13.80;99.90
15013;DHT22;7603;49.432;11.418;2022-10-15T01:58:54;13.80;99.90
15013;DHT22;7603;49.432;11.418;2022-10-15T02:01:20;13.80;99.90
15013;DHT22;7603;49.432;11.418;2022-10-15T02:03:50;13.80;99.90
15013;DHT22;7603;49.432;11.418;2022-10-15T02:06:37;13.80;99.90
15013;DHT22;7603;49.432;11.418;2022-10-15T02:20:50;13.80;99.90
15013;DHT22;7603;49.432;11.418;2022-10-15T02:25:51;13.80;99.90
15013;DHT22;7603;49.432;11.418;2022-10-15T02:28:17;13.70;99.90
15013;DHT22;7603;49.432;11.418;2022-10-15T02:30:47;13.70;99.90
15013;DHT22;7603;49.432;11.418;2022-10-15T02:33:15;13.70;99.90
15013;DHT22;7603;49.432;11.418;2022-10-15T02:35:41;13.70;99.90
15013;DHT22;7603;49.432;11.418;2022-10-15T02:38:10;13.70;99.90
15013;DHT22;7603;49.432;11.418;2022-10-15T02:40:38;13.70;99.90
15013;DHT22;7603;49.432;11.418;2022-10-15T02:43:08;13.70;99.90
15013;DHT22;7603;49.432;11.418;2022-10-15T02:45:35;13.70;99.90
15013;DHT22;7603;49.432;11.418;2022-10-15T02:48:00;13.70;99.90
15013;DHT22;7603;49.432;11.418;2022-10-15T02:50:26;13.70;99.90
15013;DHT22;7603;49.432;11.418;2022-10-15T02:52:52;13.70;99.90
15013;DHT22;7603;49.432;11.418;2022-10-15T02:55:17;13.70;99.90
15013;DHT22;7603;49.432;11.418;2022-10-15T02:57:43;13.70;99.90
15013;DHT22;7603;49.432;11.418;2022-10-15T03:00:09;13.70;99.90
15013;DHT22;7603;49.432;11.418;2022-10-15T03:02:35;13.70;99.90
15013;DHT22;7603;49.432;11.418;2022-10-15T03:05:01;13.70;99.90
15013;DHT22;7603;49.432;11.418;2022-10-15T03:07:27;13.70;99.90
15013;DHT22;7603;49.432;11.418;2022-10-15T03:09:52;13.70;99.90
15013;DHT22;7603;49.432;11.418;2022-10-15T03:12:18;13.70;99.90
15013;DHT22;7603;49.432;11.418;2022-10-15T03:14:51;13.70;99.90
15013;DHT22;7603;49.432;11.418;2022-10-15T03:17:16;13.70;99.90
15013;DHT22;7603;49.432;11.418;2022-10-15T03:19:42;13.70;99.90
15013;DHT22;7603;49.432;11.418;2022-10-15T03:22:08;13.70;99.90
15013;DHT22;7603;49.432;11.418;2022-10-15T03:24:33;13.70;99.90
15013;DHT22;7603;49.432;11.418;2022-10-15T03:26:59;13.70;99.90
15013;DHT22;7603;49.432;11.418;2022-10-15T03:29:25;13.70;99.90
15013;DHT22;7603;49.432;11.418;2022-10-15T03:31:51;13.70;99.90
15013;DHT22;7603;49.432;11.418;2022-10-15T03:34:17;13.70;99.90
15013;DHT22;7603;49.432;11.418;2022-10-15T03:36:43;13.70;99.90
15013;DHT22;7603;49.432;11.418;2022-10-15T03:39:10;13.70;99.90
15013;DHT22;7603;49.432;11.418;2022-10-15T03:41:36;13.70;99.90
15013;DHT22;7603;49.432;11.418;2022-10-15T03:44:03;13.70;99.90
15013;DHT22;7603;49.432;11.418;2022-10-15T03:46:29;13.70;99.90
15013;DHT22;7603;49.432;11.418;2022-10-15T03:48:55;13.70;99.90
15013;DHT22;7603;49.432;11.418;2022-10-15T03:51:21;13.70;99.90
15013;DHT22;7603;49.432;11.418;2022-10-15T03:53:46;13.70;99.90
15013;DHT22;7603;49.432;11.418;2022-10-15T03:56:12;13.70;99.90
15013;DHT22;7603;49.432;11.418;2022-10-15T03:58:38;13.80;99.90
15013;DHT22;7603;49.432;11.418;2022-10-15T04:01:12;13.70;99.90
15013;DHT22;7603;49.432;11.418;2022-10-15T04:03:38;13.80;99.90
15013;DHT22;7603;49.432;11.418;2022-10-15T04:06:04;13.80;99.90
15013;DHT22;7603;49.432;11.418;2022-10-15T04:08:30;13.70;99.90
15013;DHT22;7603;49.432;11.418;2022-10-15T04:10:56;13.70;99.90
15013;DHT22;7603;49.432;11.418;2022-10-15T04:13:23;13.80;99.90
15013;DHT22;7603;49.432;11.418;2022-10-15T04:15:49;13.80;99.90
15013;DHT22;7603;49.432;11.418;2022-10-15T04:18:15;13.80;99.90
15013;DHT22;7603;49.432;11.418;2022-10-15T04:20:41;13.80;99.90
15013;DHT22;7603;49.432;11.418;2022-10-15T04:23:10;13.80;99.90
15013;DHT22;7603;49.432;11.418;2022-10-15T04:25:35;13.80;99.90
15013;DHT22;7603;49.432;11.418;2022-10-15T04:28:01;13.80;99.90
15013;DHT22;7603;49.432;11.418;2022-10-15T04:30:27;13.80;99.90
15013;DHT22;7603;49.432;11.418;2022-10-15T04:32:53;13.80;99.90
15013;DHT22;7603;49.432;11.418;2022-10-15T04:35:19;13.80;99.90
15013;DHT22;7603;49.432;11.418;2022-10-15T04:37:45;13.80;99.90
15013;DHT22;7603;49.432;11.418;2022-10-15T04:40:11;13.80;99.90
15013;DHT22;7603;49.432;11.418;2022-10-15T04:42:38;13.80;99.90
15013;DHT22;7603;49.432;11.418;2022-10-15T04:45:04;13.80;99.90
15013;DHT22;7603;49.432;11.418;2022-10-15T04:47:31;13.80;99.90
15013;DHT22;7603;49.432;11.418;2022-10-15T04:49:56;13.80;99.90
15013;DHT22;7603;49.432;11.418;2022-10-15T04:52:22;13.80;99.90
15013;DHT22;7603;49.432;11.418;2022-10-15T04:54:48;13.80;99.90
15013;DHT22;7603;49.432;11.418;2022-10-15T04:57:13;13.80;99.90
15013;DHT22;7603;49.432;11.418;2022-10-15T04:59:39;13.90;99.90
15013;DHT22;7603;49.432;11.418;2022-10-15T05:02:05;13.90;99.90
15013;DHT22;7603;49.432;11.418;2022-10-15T05:04:30;13.90;99.90
15013;DHT22;7603;49.432;11.418;2022-10-15T05:06:58;13.90;99.90
15013;DHT22;7603;49.432;11.418;2022-10-15T05:09:24;13.90;99.90
15013;DHT22;7603;49.432;11.418;2022-10-15T05:11:49;13.90;99.90
15013;DHT22;7603;49.432;11.418;2022-10-15T05:14:15;13.90;99.90
15013;DHT22;7603;49.432;11.418;2022-10-15T05:16:41;13.90;99.90
15013;DHT22;7603;49.432;11.418;2022-10-15T05:19:10;13.90;99.90
15013;DHT22;7603;49.432;11.418;2022-10-15T05:21:36;13.90;99.90
15013;DHT22;7603;49.432;11.418;2022-10-15T05:24:02;13.90;99.90
15013;DHT22;7603;49.432;11.418;2022-10-15T05:26:28;13.90;99.90
15013;DHT22;7603;49.432;11.418;2022-10-15T05:28:56;13.90;99.90
15013;DHT22;7603;49.432;11.418;2022-10-15T05:31:23;13.90;99.90
15013;DHT22;7603;49.432;11.418;2022-10-15T05:33:51;13.90;99.90
15013;DHT22;7603;49.432;11.418;2022-10-15T05:36:19;13.90;99.90
15013;DHT22;7603;49.432;11.418;2022-10-15T05:38:46;13.90;99.90
15013;DHT22;7603;49.432;11.418;2022-10-15T05:41:13;13.90;99.90
15013;DHT22;7603;49.432;11.418;2022-10-15T05:43:38;13.90;99.90
15013;DHT22;7603;49.432;11.418;2022-10-15T05:46:04;13.90;99.90
15013;DHT22;7603;49.432;11.418;2022-10-15T05:48:30;14.00;99.90
15013;DHT22;7603;49.432;11.418;2022-10-15T05:51:23;13.90;99.90
15013;DHT22;7603;49.432;11.418;2022-10-15T05:53:52;14.00;99.90
15013;DHT22;7603;49.432;11.418;2022-10-15T05:56:18;13.90;99.90
15013;DHT22;7603;49.432;11.418;2022-10-15T05:58:43;14.00;99.90
15013;DHT22;7603;49.432;11.418;2022-10-15T06:01:10;14.00;99.90
15013;DHT22;7603;49.432;11.418;2022-10-15T06:03:37;14.00;99.90
15013;DHT22;7603;49.432;11.418;2022-10-15T06:06:04;14.00;99.90
15013;DHT22;7603;49.432;11.418;2022-10-15T06:08:30;14.00;99.90
15013;DHT22;7603;49.432;11.418;2022-10-15T06:11:01;14.10;99.90
15013;DHT22;7603;49.432;11.418;2022-10-15T06:13:28;14.10;99.90
15013;DHT22;7603;49.432;11.418;2022-10-15T06:15:53;14.10;99.90
15013;DHT22;7603;49.432;11.418;2022-10-15T06:18:19;14.10;99.90
15013;DHT22;7603;49.432;11.418;2022-10-15T06:20:50;14.10;99.90
15013;DHT22;7603;49.432;11.418;2022-10-15T06:23:16;14.20;99.90
15013;DHT22;7603;49.432;11.418;2022-10-15T06:25:42;14.20;99.90
15013;DHT22;7603;49.432;11.418;2022-10-15T06:28:07;14.20;99.90
15013;DHT22;7603;49.432;11.418;2022-10-15T06:30:34;14.30;99.90
15013;DHT22;7603;49.432;11.418;2022-10-15T06:32:59;14.30;99.90
15013;DHT22;7603;49.432;11.418;2022-10-15T06:35:26;14.40;99.90
15013;DHT22;7603;49.432;11.418;2022-10-15T06:37:55;14.40;99.90
15013;DHT22;7603;49.432;11.418;2022-10-15T06:40:21;14.40;99.90
15013;DHT22;7603;49.432;11.418;2022-10-15T06:42:46;14.50;99.90
15013;DHT22;7603;49.432;11.418;2022-10-15T06:45:12;14.50;99.90
15013;DHT22;7603;49.432;11.418;2022-10-15T06:47:41;14.60;99.90
15013;DHT22;7603;49.432;11.418;2022-10-15T06:50:06;14.60;99.90
15013;DHT22;7603;49.432;11.418;2022-10-15T06:52:33;14.70;99.90
15013;DHT22;7603;49.432;11.418;2022-10-15T06:54:58;14.70;99.90
15013;DHT22;7603;49.432;11.418;2022-10-15T06:57:26;14.70;99.90
15013;DHT22;7603;49.432;11.418;2022-10-15T06:59:51;14.80;99.90
15013;DHT22;7603;49.432;11.418;2022-10-15T07:02:17;14.80;99.90
15013;DHT22;7603;49.432;11.418;2022-10-15T07:04:44;14.90;99.90
15013;DHT22;7603;49.432;11.418;2022-10-15T07:07:10;14.90;99.90
15013;DHT22;7603;49.432;11.418;2022-10-15T07:09:36;14.90;99.90
15013;DHT22;7603;49.432;11.418;2022-10-15T07:12:02;15.00;99.90
15013;DHT22;7603;49.432;11.418;2022-10-15T07:14:27;15.00;99.90
15013;DHT22;7603;49.432;11.418;2022-10-15T07:16:53;15.00;99.90
15013;DHT22;7603;49.432;11.418;2022-10-15T07:19:19;15.00;99.90
15013;DHT22;7603;49.432;11.418;2022-10-15T07:21:44;15.00;99.90
15013;DHT22;7603;49.432;11.418;2022-10-15T07:24:10;15.00;99.90
15013;DHT22;7603;49.432;11.418;2022-10-15T07:26:36;15.10;99.90
15013;DHT22;7603;49.432;11.418;2022-10-15T07:29:02;15.10;99.90
15013;DHT22;7603;49.432;11.418;2022-10-15T07:31:28;15.10;99.90
15013;DHT22;7603;49.432;11.418;2022-10-15T07:33:54;15.20;99.90
15013;DHT22;7603;49.432;11.418;2022-10-15T07:36:20;15.30;99.90
15013;DHT22;7603;49.432;11.418;2022-10-15T07:38:45;15.30;99.90
15013;DHT22;7603;49.432;11.418;2022-10-15T07:41:11;15.30;99.90
15013;DHT22;7603;49.432;11.418;2022-10-15T07:43:37;15.30;99.90
15013;DHT22;7603;49.432;11.418;2022-10-15T07:46:04;15.40;99.90
15013;DHT22;7603;49.432;11.418;2022-10-15T07:48:30;15.30;99.90
15013;DHT22;7603;49.432;11.418;2022-10-15T07:51:01;15.30;99.90
15013;DHT22;7603;49.432;11.418;2022-10-15T07:53:28;15.30;99.90
15013;DHT22;7603;49.432;11.418;2022-10-15T07:56:00;15.20;99.90
15013;DHT22;7603;49.432;11.418;2022-10-15T07:58:26;15.30;99.90
15013;DHT22;7603;49.432;11.418;2022-10-15T08:00:53;15.30;99.90
15013;DHT22;7603;49.432;11.418;2022-10-15T08:03:18;15.30;99.90
15013;DHT22;7603;49.432;11.418;2022-10-15T08:05:44;15.30;99.90
15013;DHT22;7603;49.432;11.418;2022-10-15T08:08:09;15.40;99.90
15013;DHT22;7603;49.432;11.418;2022-10-15T08:10:35;15.50;99.90
15013;DHT22;7603;49.432;11.418;2022-10-15T08:13:01;15.50;99.90
15013;DHT22;7603;49.432;11.418;2022-10-15T08:15:26;15.60;99.90
15013;DHT22;7603;49.432;11.418;2022-10-15T08:17:52;15.60;99.90
15013;DHT22;7603;49.432;11.418;2022-10-15T08:20:18;15.70;99.90
15013;DHT22;7603;49.432;11.418;2022-10-15T08:22:43;15.70;99.90
15013;DHT22;7603;49.432;11.418;2022-10-15T08:25:09;15.70;99.90
15013;DHT22;7603;49.432;11.418;2022-10-15T08:27:35;15.70;99.90
15013;DHT22;7603;49.432;11.418;2022-10-15T08:30:00;15.70;99.90
15013;DHT22;7603;49.432;11.418;2022-10-15T08:32:26;15.80;99.90
15013;DHT22;7603;49.432;11.418;2022-10-15T08:34:52;15.80;99.90
15013;DHT22;7603;49.432;11.418;2022-10-15T08:37:18;15.80;99.90
15013;DHT22;7603;49.432;11.418;2022-10-15T08:39:43;15.80;99.90
15013;DHT22;7603;49.432;11.418;2022-10-15T08:42:19;15.80;99.90
15013;DHT22;7603;49.432;11.418;2022-10-15T08:44:50;15.80;99.90
15013;DHT22;7603;49.432;11.418;2022-10-15T08:47:42;15.80;99.90
15013;DHT22;7603;49.432;11.418;2022-10-15T08:53:22;15.70;99.90
15013;DHT22;7603;49.432;11.418;2022-10-15T08:55:52;15.70;99.90
15013;DHT22;7603;49.432;11.418;2022-10-15T09:06:29;15.60;99.90
15013;DHT22;7603;49.432;11.418;2022-10-15T09:12:05;15.60;99.90
15013;DHT22;7603;49.432;11.418;2022-10-15T09:14:41;15.50;99.90
15013;DHT22;7603;49.432;11.418;2022-10-15T09:19:43;15.60;99.90
15013;DHT22;7603;49.432;11.418;2022-10-15T09:22:14;15.50;99.90
15013;DHT22;7603;49.432;11.418;2022-10-15T09:24:41;15.60;99.90
15013;DHT22;7603;49.432;11.418;2022-10-15T09:32:41;15.50;99.90
15013;DHT22;7603;49.432;11.418;2022-10-15T09:35:19;15.50;99.90
15013;DHT22;7603;49.432;11.418;2022-10-15T09:43:23;15.50;99.90
15013;DHT22;7603;49.432;11.418;2022-10-15T09:45:52;15.50;99.90
15013;DHT22;7603;49.432;11.418;2022-10-15T09:48:19;15.70;99.90
15013;DHT22;7603;49.432;11.418;2022-10-15T09:51:02;15.80;99.90
15013;DHT22;7603;49.432;11.418;2022-10-15T09:56:12;15.90;99.90
15013;DHT22;7603;49.432;11.418;2022-10-15T09:58:52;16.00;99.90
15013;DHT22;7603;49.432;11.418;2022-10-15T10:01:23;16.00;99.90
15013;DHT22;7603;49.432;11.418;2022-10-15T10:04:09;16.20;99.90
15013;DHT22;7603;49.432;11.418;2022-10-15T10:06:43;16.50;99.90
15013;DHT22;7603;49.432;11.418;2022-10-15T10:09:15;16.90;99.90
15013;DHT22;7603;49.432;11.418;2022-10-15T10:11:50;17.10;99.90
15013;DHT22;7603;49.432;11.418;2022-10-15T10:17:31;17.50;99.90
15013;DHT22;7603;49.432;11.418;2022-10-15T10:22:56;17.70;99.90
15013;DHT22;7603;49.432;11.418;2022-10-15T10:27:54;18.10;99.90
15013;DHT22;7603;49.432;11.418;2022-10-15T10:30:20;18.20;99.90
15013;DHT22;7603;49.432;11.418;2022-10-15T10:32:46;18.20;99.90
15013;DHT22;7603;49.432;11.418;2022-10-15T10:35:23;18.10;99.90
15013;DHT22;7603;49.432;11.418;2022-10-15T10:37:50;18.00;99.90
15013;DHT22;7603;49.432;11.418;2022-10-15T10:40:32;17.80;99.90
15013;DHT22;7603;49.432;11.418;2022-10-15T10:43:11;17.70;99.90
15013;DHT22;7603;49.432;11.418;2022-10-15T10:48:44;17.60;99.90
15013;DHT22;7603;49.432;11.418;2022-10-15T10:53:51;17.70;99.90
15013;DHT22;7603;49.432;11.418;2022-10-15T10:56:25;18.10;99.90
15013;DHT22;7603;49.432;11.418;2022-10-15T10:59:01;18.50;99.90
15013;DHT22;7603;49.432;11.418;2022-10-15T11:01:27;18.90;99.90
15013;DHT22;7603;49.432;11.418;2022-10-15T11:03:54;19.20;99.90
15013;DHT22;7603;49.432;11.418;2022-10-15T11:06:25;19.60;99.90
15013;DHT22;7603;49.432;11.418;2022-10-15T11:17:16;19.10;99.90
15013;DHT22;7603;49.432;11.418;2022-10-15T11:20:00;18.90;99.90
15013;DHT22;7603;49.432;11.418;2022-10-15T11:25:40;19.10;99.90
15013;DHT22;7603;49.432;11.418;2022-10-15T11:28:22;19.30;99.90
15013;DHT22;7603;49.432;11.418;2022-10-15T11:36:51;19.60;99.90
15013;DHT22;7603;49.432;11.418;2022-10-15T11:48:06;19.60;99.90
15013;DHT22;7603;49.432;11.418;2022-10-15T11:50:40;19.40;99.90
15013;DHT22;7603;49.432;11.418;2022-10-15T11:55:51;19.40;99.90
15013;DHT22;7603;49.432;11.418;2022-10-15T11:58:43;19.50;99.90
15013;DHT22;7603;49.432;11.418;2022-10-15T12:01:17;19.60;99.90
15013;DHT22;7603;49.432;11.418;2022-10-15T12:03:55;19.70;99.90
15013;DHT22;7603;49.432;11.418;2022-10-15T12:06:25;19.80;99.90
15013;DHT22;7603;49.432;11.418;2022-10-15T12:08:53;19.90;99.90
15013;DHT22;7603;49.432;11.418;2022-10-15T12:13:57;19.60;99.90
15013;DHT22;7603;49.432;11.418;2022-10-15T12:19:17;19.30;99.90
15013;DHT22;7603;49.432;11.418;2022-10-15T12:22:01;19.30;99.90
15013;DHT22;7603;49.432;11.418;2022-10-15T12:29:46;19.80;99.90
15013;DHT22;7603;49.432;11.418;2022-10-15T12:32:38;20.00;99.90
15013;DHT22;7603;49.432;11.418;2022-10-15T12:35:52;20.00;99.90
15013;DHT22;7603;49.432;11.418;2022-10-15T12:37:52;19.90;99.90
15013;DHT22;7603;49.432;11.418;2022-10-15T12:40:29;19.60;99.90
15013;DHT22;7603;49.432;11.418;2022-10-15T12:43:03;19.50;99.90
15013;DHT22;7603;49.432;11.418;2022-10-15T12:45:47;19.60;99.90
15013;DHT22;7603;49.432;11.418;2022-10-15T12:48:33;20.00;99.90
15013;DHT22;7603;49.432;11.418;2022-10-15T12:51:29;20.70;99.90
15013;DHT22;7603;49.432;11.418;2022-10-15T12:53:55;21.60;99.90
15013;DHT22;7603;49.432;11.418;2022-10-15T12:56:24;22.20;99.90
15013;DHT22;7603;49.432;11.418;2022-10-15T12:58:59;22.30;99.90
15013;DHT22;7603;49.432;11.418;2022-10-15T13:04:08;21.70;99.90
15013;DHT22;7603;49.432;11.418;2022-10-15T13:06:36;21.50;99.90
15013;DHT22;7603;49.432;11.418;2022-10-15T13:11:50;21.10;99.90
15013;DHT22;7603;49.432;11.418;2022-10-15T13:16:43;20.90;99.90
15013;DHT22;7603;49.432;11.418;2022-10-15T13:19:27;20.80;99.90
15013;DHT22;7603;49.432;11.418;2022-10-15T13:21:58;20.70;99.90
15013;DHT22;7603;49.432;11.418;2022-10-15T13:24:29;20.60;99.90
15013;DHT22;7603;49.432;11.418;2022-10-15T13:26:56;20.40;99.90
15013;DHT22;7603;49.432;11.418;2022-10-15T13:29:26;20.20;99.90
15013;DHT22;7603;49.432;11.418;2022-10-15T13:31:54;20.00;99.90
15013;DHT22;7603;49.432;11.418;2022-10-15T13:36:49;19.40;99.90
15013;DHT22;7603;49.432;11.418;2022-10-15T13:39:28;19.10;99.90
15013;DHT22;7603;49.432;11.418;2022-10-15T13:42:17;19.10;99.90
15013;DHT22;7603;49.432;11.418;2022-10-15T13:45:10;19.60;99.90
15013;DHT22;7603;49.432;11.418;2022-10-15T13:47:47;20.00;99.90
15013;DHT22;7603;49.432;11.418;2022-10-15T13:55:24;21.10;99.90
15013;DHT22;7603;49.432;11.418;2022-10-15T13:57:59;21.10;99.90
15013;DHT22;7603;49.432;11.418;2022-10-15T14:00:28;21.00;99.90
15013;DHT22;7603;49.432;11.418;2022-10-15T14:05:40;21.70;99.90
15013;DHT22;7603;49.432;11.418;2022-10-15T14:08:18;22.00;99.90
15013;DHT22;7603;49.432;11.418;2022-10-15T14:10:44;22.20;99.90
15013;DHT22;7603;49.432;11.418;2022-10-15T14:13:10;22.10;99.90
15013;DHT22;7603;49.432;11.418;2022-10-15T14:18:09;23.50;99.90
15013;DHT22;7603;49.432;11.418;2022-10-15T14:20:35;24.50;99.90
15013;DHT22;7603;49.432;11.418;2022-10-15T14:23:01;24.70;99.90
15013;DHT22;7603;49.432;11.418;2022-10-15T14:25:27;24.30;99.90
15013;DHT22;7603;49.432;11.418;2022-10-15T14:27:53;23.90;99.90
15013;DHT22;7603;49.432;11.418;2022-10-15T14:30:31;23.30;99.90
15013;DHT22;7603;49.432;11.418;2022-10-15T14:32:58;22.80;99.90
15013;DHT22;7603;49.432;11.418;2022-10-15T14:35:24;22.40;99.90
15013;DHT22;7603;49.432;11.418;2022-10-15T14:38:14;21.90;99.90
15013;DHT22;7603;49.432;11.418;2022-10-15T14:40:40;21.90;99.90
15013;DHT22;7603;49.432;11.418;2022-10-15T14:45:54;25.10;99.90
15013;DHT22;7603;49.432;11.418;2022-10-15T14:50:59;28.70;99.90
15013;DHT22;7603;49.432;11.418;2022-10-15T14:53:30;28.60;99.90
15013;DHT22;7603;49.432;11.418;2022-10-15T14:56:02;28.00;99.90
15013;DHT22;7603;49.432;11.418;2022-10-15T14:58:29;27.20;99.90
15013;DHT22;7603;49.432;11.418;2022-10-15T15:00:57;26.40;99.90
15013;DHT22;7603;49.432;11.418;2022-10-15T15:03:39;25.50;99.90
15013;DHT22;7603;49.432;11.418;2022-10-15T15:06:05;25.10;99.90
15013;DHT22;7603;49.432;11.418;2022-10-15T15:08:31;25.60;99.90
15013;DHT22;7603;49.432;11.418;2022-10-15T15:10:59;26.20;99.90
15013;DHT22;7603;49.432;11.418;2022-10-15T15:13:28;26.50;99.90
15013;DHT22;7603;49.432;11.418;2022-10-15T15:15:54;26.40;99.90
15013;DHT22;7603;49.432;11.418;2022-10-15T15:18:20;25.90;99.90
15013;DHT22;7603;49.432;11.418;2022-10-15T15:20:47;25.50;99.90
15013;DHT22;7603;49.432;11.418;2022-10-15T15:23:24;25.40;99.90
15013;DHT22;7603;49.432;11.418;2022-10-15T15:25:52;25.00;99.90
15013;DHT22;7603;49.432;11.418;2022-10-15T15:28:20;24.50;99.90
15013;DHT22;7603;49.432;11.418;2022-10-15T15:30:54;23.80;99.90
15013;DHT22;7603;49.432;11.418;2022-10-15T15:33:20;23.00;99.90
15013;DHT22;7603;49.432;11.418;2022-10-15T15:36:14;22.30;99.90
15013;DHT22;7603;49.432;11.418;2022-10-15T15:38:39;21.60;99.90
15013;DHT22;7603;49.432;11.418;2022-10-15T15:41:20;21.00;99.90
15013;DHT22;7603;49.432;11.418;2022-10-15T15:43:46;20.50;99.90
15013;DHT22;7603;49.432;11.418;2022-10-15T15:46:13;20.20;99.90
15013;DHT22;7603;49.432;11.418;2022-10-15T15:48:39;19.90;99.90
15013;DHT22;7603;49.432;11.418;2022-10-15T15:51:10;19.70;99.90
15013;DHT22;7603;49.432;11.418;2022-10-15T15:53:39;19.50;99.90
15013;DHT22;7603;49.432;11.418;2022-10-15T15:56:05;19.30;99.90
15013;DHT22;7603;49.432;11.418;2022-10-15T15:58:31;19.20;99.90
15013;DHT22;7603;49.432;11.418;2022-10-15T16:00:56;19.00;99.90
15013;DHT22;7603;49.432;11.418;2022-10-15T16:03:22;18.80;99.90
15013;DHT22;7603;49.432;11.418;2022-10-15T16:05:48;18.70;99.90
15013;DHT22;7603;49.432;11.418;2022-10-15T16:08:15;18.60;99.90
15013;DHT22;7603;49.432;11.418;2022-10-15T16:10:41;18.50;99.90
15013;DHT22;7603;49.432;11.418;2022-10-15T16:13:07;18.40;99.90
15013;DHT22;7603;49.432;11.418;2022-10-15T16:15:32;18.30;99.90
15013;DHT22;7603;49.432;11.418;2022-10-15T16:17:58;18.10;99.90
15013;DHT22;7603;49.432;11.418;2022-10-15T16:20:24;18.00;99.90
15013;DHT22;7603;49.432;11.418;2022-10-15T16:22:50;17.90;99.90
15013;DHT22;7603;49.432;11.418;2022-10-15T16:25:17;17.90;99.90
15013;DHT22;7603;49.432;11.418;2022-10-15T16:27:43;17.80;99.90
15013;DHT22;7603;49.432;11.418;2022-10-15T16:30:16;17.70;99.90
15013;DHT22;7603;49.432;11.418;2022-10-15T16:32:42;17.70;99.90
15013;DHT22;7603;49.432;11.418;2022-10-15T16:35:08;17.60;99.90
15013;DHT22;7603;49.432;11.418;2022-10-15T16:37:34;17.50;99.90
15013;DHT22;7603;49.432;11.418;2022-10-15T16:39:59;17.50;99.90
15013;DHT22;7603;49.432;11.418;2022-10-15T16:42:25;17.40;99.90
15013;DHT22;7603;49.432;11.418;2022-10-15T16:44:50;17.30;99.90
15013;DHT22;7603;49.432;11.418;2022-10-15T16:47:17;17.30;99.90
15013;DHT22;7603;49.432;11.418;2022-10-15T16:49:43;17.30;99.90
15013;DHT22;7603;49.432;11.418;2022-10-15T16:52:09;17.20;99.90
15013;DHT22;7603;49.432;11.418;2022-10-15T16:54:35;17.20;99.90
15013;DHT22;7603;49.432;11.418;2022-10-15T16:57:00;17.20;99.90
15013;DHT22;7603;49.432;11.418;2022-10-15T16:59:26;17.20;99.90
15013;DHT22;7603;49.432;11.418;2022-10-15T17:01:52;17.10;99.90
15013;DHT22;7603;49.432;11.418;2022-10-15T17:04:17;17.10;99.90
15013;DHT22;7603;49.432;11.418;2022-10-15T17:06:43;17.10;99.90
15013;DHT22;7603;49.432;11.418;2022-10-15T17:09:09;17.10;99.90
15013;DHT22;7603;49.432;11.418;2022-10-15T17:11:37;17.00;99.90
15013;DHT22;7603;49.432;11.418;2022-10-15T17:14:05;17.00;99.90
15013;DHT22;7603;49.432;11.418;2022-10-15T17:16:35;17.00;99.90
15013;DHT22;7603;49.432;11.418;2022-10-15T17:19:01;16.90;99.90
15013;DHT22;7603;49.432;11.418;2022-10-15T17:21:28;16.80;99.90
15013;DHT22;7603;49.432;11.418;2022-10-15T17:23:57;16.70;99.90
15013;DHT22;7603;49.432;11.418;2022-10-15T17:26:26;16.70;99.90
15013;DHT22;7603;49.432;11.418;2022-10-15T17:28:52;16.60;99.90
15013;DHT22;7603;49.432;11.418;2022-10-15T17:31:21;16.60;99.90
15013;DHT22;7603;49.432;11.418;2022-10-15T17:33:48;16.50;99.90
15013;DHT22;7603;49.432;11.418;2022-10-15T17:36:19;16.40;99.90
15013;DHT22;7603;49.432;11.418;2022-10-15T17:38:45;16.40;99.90
15013;DHT22;7603;49.432;11.418;2022-10-15T17:41:14;16.40;99.90
15013;DHT22;7603;49.432;11.418;2022-10-15T17:43:40;16.30;99.90
15013;DHT22;7603;49.432;11.418;2022-10-15T17:46:09;16.30;99.90
15013;DHT22;7603;49.432;11.418;2022-10-15T17:48:36;16.20;99.90
15013;DHT22;7603;49.432;11.418;2022-10-15T17:51:06;16.20;99.90
15013;DHT22;7603;49.432;11.418;2022-10-15T17:53:32;16.10;99.90
15013;DHT22;7603;49.432;11.418;2022-10-15T17:55:59;16.10;99.90
15013;DHT22;7603;49.432;11.418;2022-10-15T17:58:25;16.10;99.90
15013;DHT22;7603;49.432;11.418;2022-10-15T18:00:56;16.10;99.90
15013;DHT22;7603;49.432;11.418;2022-10-15T18:03:23;16.10;99.90
15013;DHT22;7603;49.432;11.418;2022-10-15T18:05:50;16.20;99.90
15013;DHT22;7603;49.432;11.418;2022-10-15T18:08:16;16.20;99.90